Audrey — PD9331 — position and weather

sailwx.info

Track history (hours):
 
Tides and Currents Weather Stations Pressure Air Temp Water Temp Dewpoint Dewpoint Depression Visibility Wind Speed Wind Dir Waves Ship Positions

Audrey

Last reported at 2014-Jul-19 05:23 UTC. Time now 2014-Jul-22 19:35 UTC.
Position N 49°30' E 008°28'.

Length 85 m; draft 2.3 m.

Type: Other ship. MMSI: 244660106.

Date/timePositionNaut miles runAvg speedWind from/ knotsBaromVisibWave heightAir tempDewpointWater temp
2014-Jul-19 05:23N 49°30' E 008°28'21 0.9
2014-Jul-18 05:29N 49°50' E 008°23'  
2014-Jul-15 10:10N 51°46' E 006°20'14 5.1
2014-Jul-15 07:26N 51°53' E 006°00'6 4.2
2014-Jul-15 06:04N 51°51' E 005°51'3 5.4
2014-Jul-15 05:33N 51°53' E 005°47'6 5.7
2014-Jul-15 04:33N 51°54' E 005°39'6 5.8
2014-Jul-15 03:33N 51°53' E 005°29'2 1.7
2014-Jul-15 02:33N 51°54' E 005°27'0 0.0
2014-Jul-15 01:33N 51°54' E 005°27'0 0.0
2014-Jul-15 00:33N 51°54' E 005°27'0 0.0
2014-Jul-14 23:33N 51°54' E 005°27'0 0.0
2014-Jul-14 22:33N 51°54' E 005°27'0 0.0
2014-Jul-14 21:33N 51°54' E 005°27'0 0.0
2014-Jul-14 20:33N 51°54' E 005°27'0 0.0
2014-Jul-14 19:33N 51°54' E 005°27'0 0.0
2014-Jul-14 18:33N 51°54' E 005°27'6 6.0
2014-Jul-14 17:33N 51°58' E 005°19'5 5.2
2014-Jul-14 16:33N 52°00' E 005°12'7 7.0
2014-Jul-14 15:33N 52°06' E 005°05'7 7.1
2014-Jul-14 14:33N 52°12' E 005°00'8 7.7
2014-Jul-14 13:33N 52°20' E 005°01'7 6.8
2014-Jul-14 12:34N 52°25' E 004°52'2 1.8
2014-Jul-14 11:33N 52°24' E 004°50'0 0.0
2014-Jul-14 10:33N 52°24' E 004°50'0 0.0
2014-Jul-14 09:33N 52°24' E 004°50'0 0.0
2014-Jul-14 08:33N 52°24' E 004°50'0 0.0
2014-Jul-14 07:33N 52°24' E 004°50'0 0.0
2014-Jul-14 06:33N 52°24' E 004°50'0 0.0
2014-Jul-14 05:33N 52°24' E 004°50'1 1.4
2014-Jul-14 04:33N 52°25' E 004°49'5 4.8
2014-Jul-14 03:33N 52°23' E 004°55'0 0.0
2014-Jul-14 02:33N 52°23' E 004°55'0 0.0
2014-Jul-14 01:33N 52°23' E 004°55'0 0.0
2014-Jul-14 00:33N 52°23' E 004°55'0 0.0
2014-Jul-13 23:33N 52°23' E 004°55'0 0.0
2014-Jul-13 22:33N 52°23' E 004°55'0 0.0
2014-Jul-13 21:33N 52°23' E 004°55'0 0.0
2014-Jul-13 20:33N 52°23' E 004°55'0 0.0
2014-Jul-13 19:33N 52°23' E 004°55'0 0.0
2014-Jul-13 18:33N 52°23' E 004°55'0 0.0
2014-Jul-13 17:33N 52°23' E 004°55'0 0.0
2014-Jul-13 16:33N 52°23' E 004°55'0 0.0
2014-Jul-13 15:33N 52°23' E 004°55'0 0.0
2014-Jul-13 14:33N 52°23' E 004°55'0 0.0
2014-Jul-13 13:33N 52°23' E 004°55'0 0.0
2014-Jul-13 12:33N 52°23' E 004°55'0 0.0
2014-Jul-13 11:33N 52°23' E 004°55'0 0.0
2014-Jul-13 10:34N 52°23' E 004°55'6 5.8
2014-Jul-13 09:33N 52°18' E 005°01'8 7.6
2014-Jul-13 08:33N 52°10' E 004°60'7 6.9
2014-Jul-13 07:33N 52°04' E 005°05'4 4.3
2014-Jul-13 06:33N 52°00' E 005°06'6 5.7
2014-Jul-13 05:33N 51°58' E 004°58'6 6.2
2014-Jul-13 04:33N 51°55' E 004°48'7 7.4
2014-Jul-13 03:33N 51°53' E 004°37'4 4.3
2014-Jul-13 02:33N 51°55' E 004°30'0 0.0
2014-Jul-13 01:33N 51°55' E 004°30'0 0.0
2014-Jul-13 00:33N 51°55' E 004°30'0 0.0
2014-Jul-12 23:33N 51°55' E 004°30'0 0.0
2014-Jul-12 22:33N 51°55' E 004°30'0 0.0
2014-Jul-12 21:33N 51°55' E 004°30'0 0.0
2014-Jul-12 20:33N 51°55' E 004°30'0 0.0
2014-Jul-12 19:33N 51°55' E 004°30'0 0.0
2014-Jul-12 18:33N 51°55' E 004°30'0 0.0
2014-Jul-12 17:33N 51°55' E 004°30'0 0.0
2014-Jul-12 16:33N 51°55' E 004°30'0 0.0
2014-Jul-12 15:33N 51°55' E 004°30'0 0.0
2014-Jul-12 14:33N 51°55' E 004°30'0 0.0
2014-Jul-12 13:33N 51°55' E 004°30'0 0.0
2014-Jul-12 12:33N 51°55' E 004°30'0 0.0
2014-Jul-12 11:33N 51°55' E 004°30'0 0.0
2014-Jul-12 10:33N 51°55' E 004°30'0 0.0
2014-Jul-12 09:33N 51°55' E 004°30'0 0.0
2014-Jul-12 08:33N 51°55' E 004°30'0 0.0
2014-Jul-12 07:33N 51°55' E 004°30'0 0.0
2014-Jul-12 06:33N 51°55' E 004°30'0 0.0
2014-Jul-12 05:33N 51°55' E 004°30'0 0.0
2014-Jul-12 04:33N 51°55' E 004°30'0 0.0
2014-Jul-12 03:33N 51°55' E 004°30'0 0.0
2014-Jul-12 02:33N 51°55' E 004°30'0 0.0
2014-Jul-12 01:33N 51°55' E 004°30'0 0.0
2014-Jul-12 00:33N 51°55' E 004°30'0 0.0
2014-Jul-11 23:33N 51°55' E 004°30'0 0.0
2014-Jul-11 22:33N 51°55' E 004°30'0 0.0
2014-Jul-11 21:33N 51°55' E 004°30'0 0.0
2014-Jul-11 20:33N 51°55' E 004°30'0 0.0
2014-Jul-11 19:33N 51°55' E 004°30'0 0.0
2014-Jul-11 18:33N 51°55' E 004°30'0 0.0
2014-Jul-11 17:33N 51°55' E 004°30'0 0.0
2014-Jul-11 16:33N 51°55' E 004°30'0 0.0
2014-Jul-11 15:33N 51°55' E 004°30'0 0.0
2014-Jul-11 14:33N 51°55' E 004°30'0 0.0
2014-Jul-11 13:33N 51°55' E 004°30'0 0.0
2014-Jul-11 12:33N 51°55' E 004°30'0 0.0
2014-Jul-11 11:33N 51°55' E 004°30'0 0.0
2014-Jul-11 10:33N 51°55' E 004°30'0 0.0
2014-Jul-11 09:33N 51°55' E 004°30'0 0.0
2014-Jul-11 08:33N 51°55' E 004°30'0 0.0
2014-Jul-11 07:33N 51°55' E 004°30'0 0.0
2014-Jul-11 06:33N 51°55' E 004°30'0 0.0
2014-Jul-11 05:33N 51°55' E 004°30'0 0.0
2014-Jul-11 04:33N 51°55' E 004°30'0 0.0
2014-Jul-11 03:33N 51°55' E 004°30'0 0.0
2014-Jul-11 02:33N 51°55' E 004°30'0 0.0
2014-Jul-11 01:33N 51°55' E 004°30'0 0.0
2014-Jul-11 00:33N 51°55' E 004°30'0 0.0
2014-Jul-10 23:33N 51°55' E 004°30'0 0.0
2014-Jul-10 22:33N 51°55' E 004°30'0 0.0
2014-Jul-10 21:33N 51°55' E 004°30'0 0.0
2014-Jul-10 20:33N 51°55' E 004°30'0 0.0
2014-Jul-10 19:33N 51°55' E 004°30'0 0.0
2014-Jul-10 18:33N 51°55' E 004°30'0 0.0
2014-Jul-10 17:33N 51°55' E 004°30'0 0.0
2014-Jul-10 16:33N 51°55' E 004°30'0 0.0
2014-Jul-10 15:33N 51°55' E 004°30'0 0.0
2014-Jul-10 14:33N 51°55' E 004°30'0 0.0
2014-Jul-10 13:33N 51°55' E 004°30'0 0.0
2014-Jul-10 12:33N 51°55' E 004°30'0 0.0
2014-Jul-10 11:33N 51°55' E 004°30'0 0.0
2014-Jul-10 10:33N 51°55' E 004°30'0 0.0
2014-Jul-10 09:33N 51°55' E 004°30'0 0.0
2014-Jul-10 08:33N 51°55' E 004°30'0 0.0
2014-Jul-10 07:33N 51°55' E 004°30'0 0.0
2014-Jul-10 06:33N 51°55' E 004°30'0 0.0
2014-Jul-10 05:33N 51°55' E 004°30'0 0.0
2014-Jul-10 04:33N 51°55' E 004°30'0 0.0
2014-Jul-10 03:33N 51°55' E 004°30'0 0.0
2014-Jul-10 02:33N 51°55' E 004°30'0 0.0
2014-Jul-10 01:33N 51°55' E 004°30'0 0.0
2014-Jul-10 00:33N 51°55' E 004°30'0 0.0
2014-Jul-09 23:33N 51°55' E 004°30'0 0.0
2014-Jul-09 22:33N 51°55' E 004°30'0 0.0
2014-Jul-09 21:33N 51°55' E 004°30'0 0.0
2014-Jul-09 20:33N 51°55' E 004°30'0 0.0
2014-Jul-09 19:33N 51°55' E 004°30'0 0.0
2014-Jul-09 18:33N 51°55' E 004°30'0 0.3
2014-Jul-09 17:33N 51°55' E 004°29'8 8.4
2014-Jul-09 16:34N 51°50' E 004°40'1 1.3
2014-Jul-09 15:34N 51°49' E 004°42'9 9.2
2014-Jul-09 14:34N 51°50' E 004°57'10 9.9
2014-Jul-09 13:34N 51°49' E 005°13'9 8.9
2014-Jul-09 12:34N 51°53' E 005°26'1110.8
2014-Jul-09 11:32N 51°53' E 005°44'10 8.9
2014-Jul-09 10:27N 51°52' E 005°59'4 4.1
2014-Jul-09 09:31N 51°56' E 005°58'4 4.5
2014-Jul-09 08:33N 51°60' E 006°01'4 3.9
2014-Jul-09 07:25N 52°02' E 006°08'4 4.9
2014-Jul-09 06:32N 52°05' E 006°11'  
Track history (hours):
 
Tides and Currents Weather Stations Pressure Air Temp Water Temp Dewpoint Dewpoint Depression Visibility Wind Speed Wind Dir Waves Ship Positions

Audrey

Last reported at 2014-Jul-19 05:23 UTC. Time now 2014-Jul-22 19:35 UTC.
Position N 49°30' E 008°28'.

Length 85 m; draft 2.3 m.

Type: Other ship. MMSI: 244660106.

Date/timePositionNaut miles runAvg speedWind from/ knotsBaromVisibWave heightAir tempDewpointWater temp
2014-Jul-19 05:23N 49°30' E 008°28'21 0.9
2014-Jul-18 05:29N 49°50' E 008°23'  
2014-Jul-15 10:10N 51°46' E 006°20'14 5.1
2014-Jul-15 07:26N 51°53' E 006°00'6 4.2
2014-Jul-15 06:04N 51°51' E 005°51'3 5.4
2014-Jul-15 05:33N 51°53' E 005°47'6 5.7
2014-Jul-15 04:33N 51°54' E 005°39'6 5.8
2014-Jul-15 03:33N 51°53' E 005°29'2 1.7
2014-Jul-15 02:33N 51°54' E 005°27'0 0.0
2014-Jul-15 01:33N 51°54' E 005°27'0 0.0
2014-Jul-15 00:33N 51°54' E 005°27'0 0.0
2014-Jul-14 23:33N 51°54' E 005°27'0 0.0
2014-Jul-14 22:33N 51°54' E 005°27'0 0.0
2014-Jul-14 21:33N 51°54' E 005°27'0 0.0
2014-Jul-14 20:33N 51°54' E 005°27'0 0.0
2014-Jul-14 19:33N 51°54' E 005°27'0 0.0
2014-Jul-14 18:33N 51°54' E 005°27'6 6.0
2014-Jul-14 17:33N 51°58' E 005°19'5 5.2
2014-Jul-14 16:33N 52°00' E 005°12'7 7.0
2014-Jul-14 15:33N 52°06' E 005°05'7 7.1
2014-Jul-14 14:33N 52°12' E 005°00'8 7.7
2014-Jul-14 13:33N 52°20' E 005°01'7 6.8
2014-Jul-14 12:34N 52°25' E 004°52'2 1.8
2014-Jul-14 11:33N 52°24' E 004°50'0 0.0
2014-Jul-14 10:33N 52°24' E 004°50'0 0.0
2014-Jul-14 09:33N 52°24' E 004°50'0 0.0
2014-Jul-14 08:33N 52°24' E 004°50'0 0.0
2014-Jul-14 07:33N 52°24' E 004°50'0 0.0
2014-Jul-14 06:33N 52°24' E 004°50'0 0.0
2014-Jul-14 05:33N 52°24' E 004°50'1 1.4
2014-Jul-14 04:33N 52°25' E 004°49'5 4.8
2014-Jul-14 03:33N 52°23' E 004°55'0 0.0
2014-Jul-14 02:33N 52°23' E 004°55'0 0.0
2014-Jul-14 01:33N 52°23' E 004°55'0 0.0
2014-Jul-14 00:33N 52°23' E 004°55'0 0.0
2014-Jul-13 23:33N 52°23' E 004°55'0 0.0
2014-Jul-13 22:33N 52°23' E 004°55'0 0.0
2014-Jul-13 21:33N 52°23' E 004°55'0 0.0
2014-Jul-13 20:33N 52°23' E 004°55'0 0.0
2014-Jul-13 19:33N 52°23' E 004°55'0 0.0
2014-Jul-13 18:33N 52°23' E 004°55'0 0.0
2014-Jul-13 17:33N 52°23' E 004°55'0 0.0
2014-Jul-13 16:33N 52°23' E 004°55'0 0.0
2014-Jul-13 15:33N 52°23' E 004°55'0 0.0
2014-Jul-13 14:33N 52°23' E 004°55'0 0.0
2014-Jul-13 13:33N 52°23' E 004°55'0 0.0
2014-Jul-13 12:33N 52°23' E 004°55'0 0.0
2014-Jul-13 11:33N 52°23' E 004°55'0 0.0
2014-Jul-13 10:34N 52°23' E 004°55'6 5.8
2014-Jul-13 09:33N 52°18' E 005°01'8 7.6
2014-Jul-13 08:33N 52°10' E 004°60'7 6.9
2014-Jul-13 07:33N 52°04' E 005°05'4 4.3
2014-Jul-13 06:33N 52°00' E 005°06'6 5.7
2014-Jul-13 05:33N 51°58' E 004°58'6 6.2
2014-Jul-13 04:33N 51°55' E 004°48'7 7.4
2014-Jul-13 03:33N 51°53' E 004°37'4 4.3
2014-Jul-13 02:33N 51°55' E 004°30'0 0.0
2014-Jul-13 01:33N 51°55' E 004°30'0 0.0
2014-Jul-13 00:33N 51°55' E 004°30'0 0.0
2014-Jul-12 23:33N 51°55' E 004°30'0 0.0
2014-Jul-12 22:33N 51°55' E 004°30'0 0.0
2014-Jul-12 21:33N 51°55' E 004°30'0 0.0
2014-Jul-12 20:33N 51°55' E 004°30'0 0.0
2014-Jul-12 19:33N 51°55' E 004°30'0 0.0
2014-Jul-12 18:33N 51°55' E 004°30'0 0.0
2014-Jul-12 17:33N 51°55' E 004°30'0 0.0
2014-Jul-12 16:33N 51°55' E 004°30'0 0.0
2014-Jul-12 15:33N 51°55' E 004°30'0 0.0
2014-Jul-12 14:33N 51°55' E 004°30'0 0.0
2014-Jul-12 13:33N 51°55' E 004°30'0 0.0
2014-Jul-12 12:33N 51°55' E 004°30'0 0.0
2014-Jul-12 11:33N 51°55' E 004°30'0 0.0
2014-Jul-12 10:33N 51°55' E 004°30'0 0.0
2014-Jul-12 09:33N 51°55' E 004°30'0 0.0
2014-Jul-12 08:33N 51°55' E 004°30'0 0.0
2014-Jul-12 07:33N 51°55' E 004°30'0 0.0
2014-Jul-12 06:33N 51°55' E 004°30'0 0.0
2014-Jul-12 05:33N 51°55' E 004°30'0 0.0
2014-Jul-12 04:33N 51°55' E 004°30'0 0.0
2014-Jul-12 03:33N 51°55' E 004°30'0 0.0
2014-Jul-12 02:33N 51°55' E 004°30'0 0.0
2014-Jul-12 01:33N 51°55' E 004°30'0 0.0
2014-Jul-12 00:33N 51°55' E 004°30'0 0.0
2014-Jul-11 23:33N 51°55' E 004°30'0 0.0
2014-Jul-11 22:33N 51°55' E 004°30'0 0.0
2014-Jul-11 21:33N 51°55' E 004°30'0 0.0
2014-Jul-11 20:33N 51°55' E 004°30'0 0.0
2014-Jul-11 19:33N 51°55' E 004°30'0 0.0
2014-Jul-11 18:33N 51°55' E 004°30'0 0.0
2014-Jul-11 17:33N 51°55' E 004°30'0 0.0
2014-Jul-11 16:33N 51°55' E 004°30'0 0.0
2014-Jul-11 15:33N 51°55' E 004°30'0 0.0
2014-Jul-11 14:33N 51°55' E 004°30'0 0.0
2014-Jul-11 13:33N 51°55' E 004°30'0 0.0
2014-Jul-11 12:33N 51°55' E 004°30'0 0.0
2014-Jul-11 11:33N 51°55' E 004°30'0 0.0
2014-Jul-11 10:33N 51°55' E 004°30'0 0.0
2014-Jul-11 09:33N 51°55' E 004°30'0 0.0
2014-Jul-11 08:33N 51°55' E 004°30'0 0.0
2014-Jul-11 07:33N 51°55' E 004°30'0 0.0
2014-Jul-11 06:33N 51°55' E 004°30'0 0.0
2014-Jul-11 05:33N 51°55' E 004°30'0 0.0
2014-Jul-11 04:33N 51°55' E 004°30'0 0.0
2014-Jul-11 03:33N 51°55' E 004°30'0 0.0
2014-Jul-11 02:33N 51°55' E 004°30'0 0.0
2014-Jul-11 01:33N 51°55' E 004°30'0 0.0
2014-Jul-11 00:33N 51°55' E 004°30'0 0.0
2014-Jul-10 23:33N 51°55' E 004°30'0 0.0
2014-Jul-10 22:33N 51°55' E 004°30'0 0.0
2014-Jul-10 21:33N 51°55' E 004°30'0 0.0
2014-Jul-10 20:33N 51°55' E 004°30'0 0.0
2014-Jul-10 19:33N 51°55' E 004°30'0 0.0
2014-Jul-10 18:33N 51°55' E 004°30'0 0.0
2014-Jul-10 17:33N 51°55' E 004°30'0 0.0
2014-Jul-10 16:33N 51°55' E 004°30'0 0.0
2014-Jul-10 15:33N 51°55' E 004°30'0 0.0
2014-Jul-10 14:33N 51°55' E 004°30'0 0.0
2014-Jul-10 13:33N 51°55' E 004°30'0 0.0
2014-Jul-10 12:33N 51°55' E 004°30'0 0.0
2014-Jul-10 11:33N 51°55' E 004°30'0 0.0
2014-Jul-10 10:33N 51°55' E 004°30'0 0.0
2014-Jul-10 09:33N 51°55' E 004°30'0 0.0
2014-Jul-10 08:33N 51°55' E 004°30'0 0.0
2014-Jul-10 07:33N 51°55' E 004°30'0 0.0
2014-Jul-10 06:33N 51°55' E 004°30'0 0.0
2014-Jul-10 05:33N 51°55' E 004°30'0 0.0
2014-Jul-10 04:33N 51°55' E 004°30'0 0.0
2014-Jul-10 03:33N 51°55' E 004°30'0 0.0
2014-Jul-10 02:33N 51°55' E 004°30'0 0.0
2014-Jul-10 01:33N 51°55' E 004°30'0 0.0
2014-Jul-10 00:33N 51°55' E 004°30'0 0.0
2014-Jul-09 23:33N 51°55' E 004°30'0 0.0
2014-Jul-09 22:33N 51°55' E 004°30'0 0.0
2014-Jul-09 21:33N 51°55' E 004°30'0 0.0
2014-Jul-09 20:33N 51°55' E 004°30'0 0.0
2014-Jul-09 19:33N 51°55' E 004°30'0 0.0
2014-Jul-09 18:33N 51°55' E 004°30'0 0.3
2014-Jul-09 17:33N 51°55' E 004°29'8 8.4
2014-Jul-09 16:34N 51°50' E 004°40'1 1.3
2014-Jul-09 15:34N 51°49' E 004°42'9 9.2
2014-Jul-09 14:34N 51°50' E 004°57'10 9.9
2014-Jul-09 13:34N 51°49' E 005°13'9 8.9
2014-Jul-09 12:34N 51°53' E 005°26'1110.8
2014-Jul-09 11:32N 51°53' E 005°44'10 8.9
2014-Jul-09 10:27N 51°52' E 005°59'4 4.1
2014-Jul-09 09:31N 51°56' E 005°58'4 4.5
2014-Jul-09 08:33N 51°60' E 006°01'4 3.9
2014-Jul-09 07:25N 52°02' E 006°08'4 4.9
2014-Jul-09 06:32N 52°05' E 006°11'  

Dump ship's entire track history